Time;durP1;ratioP1;P1;durP2;ratioP2;P2;SDS_P1;SDS_P2;PMS_P1;PMS_P2;Temp;Humidity;BMP_temperature;BMP_pressure;BME280_temperature;BME280_humidity;BME280_pressure;Samples;Min_cycle;Max_cycle;Signal;HPM_P1;HPM_P2
2023/08/02 00:01:14;;;;;;;;;;;20.00;70.30;;;;;;4980154;28;19936;-78
2023/08/02 00:03:41;;;;;;;;;;;20.00;70.30;;;;;;4987163;28;19933;-77
2023/08/02 00:06:07;;;;;;;;;;;20.00;70.20;;;;;;4980244;28;19930;-78
2023/08/02 00:08:35;;;;;;;;;;;19.90;70.20;;;;;;4984549;28;19934;-78
2023/08/02 00:11:02;;;;;;;;;;;19.90;70.30;;;;;;4979245;28;19936;-77
2023/08/02 00:13:30;;;;;;;;;;;19.90;70.40;;;;;;4978234;28;19940;-76
2023/08/02 00:15:57;;;;;;;;;;;19.90;70.40;;;;;;4984182;28;19930;-77
2023/08/02 00:18:23;;;;;;;;;;;19.90;70.50;;;;;;4985275;28;19941;-78
2023/08/02 00:20:50;;;;;;;;;;;19.90;70.60;;;;;;4982017;28;19934;-78
2023/08/02 00:23:17;;;;;;;;;;;19.90;70.60;;;;;;4984700;28;20694;-79
2023/08/02 00:25:43;;;;;;;;;;;19.90;70.70;;;;;;4993093;28;19937;-79
2023/08/02 00:28:10;;;;;;;;;;;19.80;70.70;;;;;;4999393;28;20475;-77
2023/08/02 00:30:45;;;;;;;;;;;19.80;70.70;;;;;;4990001;28;19937;-77
2023/08/02 00:33:11;;;;;;;;;;;19.80;70.70;;;;;;4985221;28;19934;-79
2023/08/02 00:35:42;;;;;;;;;;;19.80;70.70;;;;;;4983176;28;19972;-78
2023/08/02 00:38:09;;;;;;;;;;;19.80;70.70;;;;;;4985793;28;19934;-78
2023/08/02 00:40:35;;;;;;;;;;;19.80;70.80;;;;;;4986383;28;19937;-78
2023/08/02 00:43:02;;;;;;;;;;;19.70;70.90;;;;;;4986194;28;19929;-79
2023/08/02 00:45:30;;;;;;;;;;;19.70;71.00;;;;;;4983138;28;19934;-78
2023/08/02 00:47:58;;;;;;;;;;;19.70;71.10;;;;;;4983859;28;19937;-79
2023/08/02 00:50:25;;;;;;;;;;;19.70;71.20;;;;;;4981318;28;19930;-78
2023/08/02 00:52:51;;;;;;;;;;;19.70;71.20;;;;;;4984306;28;20387;-78
2023/08/02 00:55:18;;;;;;;;;;;19.70;71.20;;;;;;4985415;28;20475;-78
2023/08/02 00:57:44;;;;;;;;;;;19.70;71.30;;;;;;4986023;28;19941;-78
2023/08/02 01:00:12;;;;;;;;;;;19.70;71.40;;;;;;4981880;28;19929;-77
2023/08/02 01:02:38;;;;;;;;;;;19.60;71.30;;;;;;4983584;28;19937;-77
2023/08/02 01:05:06;;;;;;;;;;;19.70;71.50;;;;;;4981498;28;19937;-78
2023/08/02 01:07:35;;;;;;;;;;;19.60;71.60;;;;;;4984563;28;19930;-78
2023/08/02 01:10:05;;;;;;;;;;;19.60;71.60;;;;;;4983085;28;20014;-78
2023/08/02 01:12:32;;;;;;;;;;;19.60;71.60;;;;;;4984128;28;19941;-78
2023/08/02 01:15:00;;;;;;;;;;;19.60;71.60;;;;;;4983611;28;19929;-77
2023/08/02 01:17:26;;;;;;;;;;;19.60;71.60;;;;;;4979968;28;19953;-77
2023/08/02 01:19:53;;;;;;;;;;;19.50;71.60;;;;;;4981873;28;20479;-78
2023/08/02 01:22:21;;;;;;;;;;;19.50;71.70;;;;;;4984544;28;19933;-78
2023/08/02 01:24:47;;;;;;;;;;;19.50;71.80;;;;;;4983161;28;20347;-78
2023/08/02 01:27:17;;;;;;;;;;;19.50;71.80;;;;;;4983049;28;19930;-78
2023/08/02 01:29:46;;;;;;;;;;;19.50;71.80;;;;;;4981277;28;20411;-78
2023/08/02 01:32:13;;;;;;;;;;;19.50;71.90;;;;;;4981014;28;20344;-77
2023/08/02 01:34:39;;;;;;;;;;;19.50;72.00;;;;;;4980724;28;19941;-78
2023/08/02 01:37:06;;;;;;;;;;;19.40;72.00;;;;;;4985760;28;19976;-78
2023/08/02 01:39:34;;;;;;;;;;;19.40;71.90;;;;;;4983743;28;19960;-76
2023/08/02 01:42:00;;;;;;;;;;;19.40;71.90;;;;;;4984138;28;19929;-77
2023/08/02 01:44:27;;;;;;;;;;;19.40;71.90;;;;;;4986578;28;19937;-77
2023/08/02 01:46:54;;;;;;;;;;;19.40;71.90;;;;;;4985551;28;19936;-77
2023/08/02 01:49:21;;;;;;;;;;;19.40;71.90;;;;;;4984709;28;19933;-77
2023/08/02 01:51:48;;;;;;;;;;;19.40;72.10;;;;;;4983832;28;19957;-77
2023/08/02 01:54:14;;;;;;;;;;;19.40;72.20;;;;;;4986324;28;19960;-77
2023/08/02 01:56:42;;;;;;;;;;;19.30;72.20;;;;;;4987095;28;19934;-78
2023/08/02 01:59:11;;;;;;;;;;;19.30;72.40;;;;;;4983744;28;19929;-77
2023/08/02 02:01:38;;;;;;;;;;;19.30;72.50;;;;;;4984352;28;19930;-77
2023/08/02 02:04:05;;;;;;;;;;;19.30;72.60;;;;;;4983175;28;19930;-78
2023/08/02 02:06:31;;;;;;;;;;;19.30;72.70;;;;;;4986067;28;19937;-78
2023/08/02 02:08:58;;;;;;;;;;;19.30;72.90;;;;;;4982196;28;19937;-78
2023/08/02 02:11:26;;;;;;;;;;;19.30;73.00;;;;;;4983709;28;21285;-77
2023/08/02 02:13:54;;;;;;;;;;;19.30;73.10;;;;;;4981751;28;19941;-77
2023/08/02 02:16:20;;;;;;;;;;;19.30;73.20;;;;;;4982245;28;19941;-78
2023/08/02 02:18:47;;;;;;;;;;;19.20;73.30;;;;;;4983793;28;19937;-78
2023/08/02 02:21:13;;;;;;;;;;;19.20;73.30;;;;;;4981967;28;19930;-78
2023/08/02 02:23:40;;;;;;;;;;;19.20;73.40;;;;;;4980187;28;20411;-76
2023/08/02 02:26:06;;;;;;;;;;;19.20;73.50;;;;;;4983868;28;19930;-77
2023/08/02 02:28:33;;;;;;;;;;;19.20;73.70;;;;;;4981129;28;19936;-78
2023/08/02 02:31:01;;;;;;;;;;;19.20;73.70;;;;;;4981538;28;19930;-79
2023/08/02 02:33:27;;;;;;;;;;;19.10;73.70;;;;;;4986507;28;19929;-78
2023/08/02 02:35:54;;;;;;;;;;;19.20;73.80;;;;;;4986086;28;19937;-78
2023/08/02 02:38:20;;;;;;;;;;;19.10;73.90;;;;;;4980990;28;19941;-77
2023/08/02 02:40:47;;;;;;;;;;;19.10;74.00;;;;;;4985009;28;19938;-78
2023/08/02 02:43:13;;;;;;;;;;;19.10;74.00;;;;;;4980636;28;19940;-78
2023/08/02 02:45:40;;;;;;;;;;;19.10;74.20;;;;;;4982015;28;19930;-77
2023/08/02 02:48:08;;;;;;;;;;;19.10;74.30;;;;;;4983481;28;19930;-78
2023/08/02 02:50:34;;;;;;;;;;;19.10;74.40;;;;;;4983896;28;19930;-78
2023/08/02 02:53:01;;;;;;;;;;;19.10;74.40;;;;;;4980827;28;20319;-77
2023/08/02 02:55:28;;;;;;;;;;;19.00;74.50;;;;;;4978067;28;20543;-77
2023/08/02 02:57:54;;;;;;;;;;;19.10;74.70;;;;;;4981840;28;20359;-77
2023/08/02 03:00:21;;;;;;;;;;;19.00;74.80;;;;;;4979414;28;20393;-78
2023/08/02 03:02:47;;;;;;;;;;;19.00;74.90;;;;;;4981104;28;19929;-77
2023/08/02 03:05:15;;;;;;;;;;;19.00;75.80;;;;;;4979234;28;19960;-77
2023/08/02 03:07:42;;;;;;;;;;;19.00;75.00;;;;;;4986182;28;19930;-76
2023/08/02 03:10:09;;;;;;;;;;;19.00;75.00;;;;;;4981819;28;19934;-78
2023/08/02 03:12:35;;;;;;;;;;;19.00;75.10;;;;;;4983866;28;19926;-77
2023/08/02 03:15:02;;;;;;;;;;;19.00;75.20;;;;;;4981672;28;19949;-78
2023/08/02 03:17:29;;;;;;;;;;;19.00;75.30;;;;;;4978959;28;20505;-79
2023/08/02 03:19:55;;;;;;;;;;;19.00;75.40;;;;;;4981242;28;20307;-78
2023/08/02 03:22:23;;;;;;;;;;;18.90;75.40;;;;;;4984574;28;20423;-77
2023/08/02 03:24:49;;;;;;;;;;;18.90;75.60;;;;;;4982898;28;19933;-78
2023/08/02 03:27:16;;;;;;;;;;;18.90;75.60;;;;;;4981296;28;19936;-78
2023/08/02 03:29:43;;;;;;;;;;;18.90;75.70;;;;;;4980092;28;19933;-78
2023/08/02 03:32:09;;;;;;;;;;;18.90;75.80;;;;;;4980192;28;19941;-77
2023/08/02 03:34:36;;;;;;;;;;;18.90;75.90;;;;;;4981223;28;19937;-77
2023/08/02 03:37:02;;;;;;;;;;;18.90;76.00;;;;;;4981373;28;19974;-78
2023/08/02 03:39:30;;;;;;;;;;;18.90;76.10;;;;;;4982182;28;19937;-78
2023/08/02 03:41:57;;;;;;;;;;;18.90;76.20;;;;;;4982304;28;19946;-78
2023/08/02 03:44:23;;;;;;;;;;;18.90;76.30;;;;;;4979560;28;19930;-78
2023/08/02 03:46:50;;;;;;;;;;;18.90;76.40;;;;;;4980161;28;19941;-78
2023/08/02 03:49:16;;;;;;;;;;;18.80;76.40;;;;;;4980760;28;19937;-78
2023/08/02 03:51:43;;;;;;;;;;;18.90;76.60;;;;;;4978866;28;19930;-81
2023/08/02 03:54:10;;;;;;;;;;;18.80;76.70;;;;;;4982313;28;19937;-78
2023/08/02 03:56:37;;;;;;;;;;;18.80;76.70;;;;;;4983847;28;19993;-78
2023/08/02 03:59:04;;;;;;;;;;;18.80;76.90;;;;;;4980190;28;19933;-78
2023/08/02 04:01:31;;;;;;;;;;;18.80;76.90;;;;;;4978678;28;19929;-77
2023/08/02 04:03:57;;;;;;;;;;;18.80;77.00;;;;;;4983592;28;19940;-76
2023/08/02 04:06:24;;;;;;;;;;;18.80;77.10;;;;;;4982124;28;19937;-77
2023/08/02 04:08:50;;;;;;;;;;;18.80;77.10;;;;;;4981864;28;19930;-77
2023/08/02 04:11:17;;;;;;;;;;;18.80;77.20;;;;;;4984039;28;19930;-77
2023/08/02 04:13:45;;;;;;;;;;;18.80;77.10;;;;;;4983736;28;19929;-78
2023/08/02 04:16:11;;;;;;;;;;;18.80;77.10;;;;;;4975313;28;19998;-77
2023/08/02 04:18:38;;;;;;;;;;;18.80;77.10;;;;;;4981792;28;19940;-78
2023/08/02 04:21:04;;;;;;;;;;;18.80;77.20;;;;;;4989239;28;19929;-77
2023/08/02 04:23:31;;;;;;;;;;;18.80;77.30;;;;;;4984478;28;19936;-77
2023/08/02 04:25:58;;;;;;;;;;;18.70;77.40;;;;;;4983973;28;20012;-76
2023/08/02 04:28:24;;;;;;;;;;;18.80;77.60;;;;;;4982394;28;19930;-78
2023/08/02 04:30:52;;;;;;;;;;;18.70;77.70;;;;;;4983694;28;19930;-76
2023/08/02 04:33:19;;;;;;;;;;;18.70;77.90;;;;;;4979885;28;19934;-78
2023/08/02 04:35:46;;;;;;;;;;;18.70;78.20;;;;;;4978498;28;19930;-76
2023/08/02 04:38:12;;;;;;;;;;;18.70;78.40;;;;;;4979338;28;19934;-75
2023/08/02 04:40:39;;;;;;;;;;;18.70;78.50;;;;;;4981072;28;19929;-77
2023/08/02 04:43:05;;;;;;;;;;;18.70;78.80;;;;;;4980524;28;19930;-76
2023/08/02 04:45:32;;;;;;;;;;;18.70;79.00;;;;;;4981189;28;19936;-76
2023/08/02 04:48:00;;;;;;;;;;;18.70;79.20;;;;;;4982539;28;19930;-75
2023/08/02 04:50:26;;;;;;;;;;;18.70;79.40;;;;;;4979410;28;19950;-76
2023/08/02 04:52:53;;;;;;;;;;;18.70;79.60;;;;;;4980649;28;19926;-76
2023/08/02 04:55:19;;;;;;;;;;;18.70;79.80;;;;;;4982168;28;20406;-76
2023/08/02 04:57:46;;;;;;;;;;;18.60;80.00;;;;;;4982819;28;20404;-76
2023/08/02 05:00:13;;;;;;;;;;;18.60;80.10;;;;;;4979671;28;20304;-76
2023/08/02 05:02:39;;;;;;;;;;;18.60;80.20;;;;;;4977269;28;19929;-76
2023/08/02 05:05:08;;;;;;;;;;;18.60;80.40;;;;;;4984952;28;19930;-75
2023/08/02 05:07:35;;;;;;;;;;;18.60;80.50;;;;;;4984916;28;19937;-77
2023/08/02 05:10:03;;;;;;;;;;;18.60;80.80;;;;;;4979920;28;19933;-75
2023/08/02 05:12:30;;;;;;;;;;;18.60;80.90;;;;;;4981937;28;19937;-75
2023/08/02 05:14:57;;;;;;;;;;;18.60;81.20;;;;;;4981613;28;19940;-76
2023/08/02 05:17:24;;;;;;;;;;;18.60;81.40;;;;;;4980487;28;19936;-76
2023/08/02 05:19:50;;;;;;;;;;;18.60;81.50;;;;;;4984542;28;19933;-75
2023/08/02 05:22:18;;;;;;;;;;;18.60;81.60;;;;;;4987397;28;19952;-76
2023/08/02 05:24:45;;;;;;;;;;;18.50;81.70;;;;;;4987922;28;19951;-76
2023/08/02 05:27:11;;;;;;;;;;;18.60;81.90;;;;;;4985786;28;20392;-75
2023/08/02 05:29:38;;;;;;;;;;;18.50;81.90;;;;;;4986114;28;19930;-75
2023/08/02 05:32:05;;;;;;;;;;;18.50;82.00;;;;;;4984850;28;19937;-75
2023/08/02 05:34:32;;;;;;;;;;;18.50;82.20;;;;;;4987205;28;19930;-78
2023/08/02 05:36:58;;;;;;;;;;;18.50;82.40;;;;;;4981687;28;20016;-75
2023/08/02 05:39:26;;;;;;;;;;;18.50;82.50;;;;;;4984994;28;19955;-76
2023/08/02 05:41:52;;;;;;;;;;;18.50;82.70;;;;;;4987931;28;19934;-75
2023/08/02 05:44:19;;;;;;;;;;;18.50;82.80;;;;;;4984213;28;19929;-76
2023/08/02 05:46:46;;;;;;;;;;;18.50;82.80;;;;;;4986358;28;19953;-75
2023/08/02 05:49:12;;;;;;;;;;;18.50;83.00;;;;;;4987889;28;19961;-78
2023/08/02 05:51:39;;;;;;;;;;;18.50;83.10;;;;;;4984204;28;20308;-76
2023/08/02 05:54:05;;;;;;;;;;;18.40;83.10;;;;;;4986874;28;20462;-75
2023/08/02 05:56:33;;;;;;;;;;;18.50;83.20;;;;;;4986461;28;20400;-77
2023/08/02 05:59:00;;;;;;;;;;;18.40;83.30;;;;;;4989193;28;19930;-76
2023/08/02 06:01:26;;;;;;;;;;;18.40;83.50;;;;;;4985991;28;19929;-76
2023/08/02 06:03:53;;;;;;;;;;;18.40;83.60;;;;;;4985178;28;19941;-77
2023/08/02 06:06:19;;;;;;;;;;;18.40;83.60;;;;;;4983702;28;19961;-75
2023/08/02 06:08:47;;;;;;;;;;;18.40;83.70;;;;;;4977765;28;19930;-75
2023/08/02 06:11:13;;;;;;;;;;;18.40;83.90;;;;;;4982061;28;19937;-76
2023/08/02 06:13:41;;;;;;;;;;;18.30;83.90;;;;;;4983175;28;20017;-76
2023/08/02 06:16:08;;;;;;;;;;;18.40;84.20;;;;;;4981784;28;19934;-75
2023/08/02 06:18:34;;;;;;;;;;;18.40;84.30;;;;;;4983781;28;19957;-74
2023/08/02 06:21:01;;;;;;;;;;;18.40;84.40;;;;;;4983898;28;19930;-75
2023/08/02 06:23:27;;;;;;;;;;;18.30;84.50;;;;;;4980462;28;19930;-76
2023/08/02 06:25:54;;;;;;;;;;;18.30;84.60;;;;;;4982492;28;19929;-75
2023/08/02 06:28:20;;;;;;;;;;;18.30;84.80;;;;;;4983068;28;19930;-75
2023/08/02 06:30:48;;;;;;;;;;;18.40;84.90;;;;;;4982963;28;20376;-75
2023/08/02 06:33:15;;;;;;;;;;;18.30;84.90;;;;;;4985498;28;19929;-75
2023/08/02 06:35:41;;;;;;;;;;;18.30;85.10;;;;;;4985471;28;20028;-75
2023/08/02 06:38:08;;;;;;;;;;;18.30;85.20;;;;;;4983894;28;20344;-75
2023/08/02 06:40:35;;;;;;;;;;;18.30;85.40;;;;;;4983352;28;20415;-75
2023/08/02 06:43:01;;;;;;;;;;;18.30;85.40;;;;;;4982918;28;20400;-76
2023/08/02 06:45:28;;;;;;;;;;;18.30;85.50;;;;;;4980813;28;19940;-76
2023/08/02 06:47:56;;;;;;;;;;;18.30;85.60;;;;;;4984125;28;19929;-76
2023/08/02 06:50:22;;;;;;;;;;;18.30;85.80;;;;;;4979989;28;19937;-76
2023/08/02 06:52:49;;;;;;;;;;;18.30;85.80;;;;;;4978584;28;20478;-76
2023/08/02 06:55:16;;;;;;;;;;;18.30;85.90;;;;;;4984874;28;19933;-76
2023/08/02 06:57:43;;;;;;;;;;;18.30;86.10;;;;;;4991550;28;19933;-75
2023/08/02 07:00:10;;;;;;;;;;;18.30;86.10;;;;;;4979823;28;19940;-76
2023/08/02 07:02:37;;;;;;;;;;;18.30;86.30;;;;;;4978405;28;20498;-77
2023/08/02 07:05:05;;;;;;;;;;;18.30;86.40;;;;;;4982966;28;20430;-75
2023/08/02 07:07:32;;;;;;;;;;;18.30;86.50;;;;;;4986922;28;20165;-75
2023/08/02 07:09:58;;;;;;;;;;;18.30;86.70;;;;;;4985834;28;19930;-77
2023/08/02 07:12:25;;;;;;;;;;;18.30;86.90;;;;;;4983358;28;19934;-77
2023/08/02 07:14:51;;;;;;;;;;;18.30;87.00;;;;;;4978672;28;19930;-76
2023/08/02 07:17:18;;;;;;;;;;;18.30;87.20;;;;;;4978903;28;19934;-77
2023/08/02 07:19:44;;;;;;;;;;;18.30;87.30;;;;;;4980984;28;19937;-81
2023/08/02 07:22:17;;;;;;;;;;;18.30;88.10;;;;;;4980916;28;19930;-77
2023/08/02 07:24:43;;;;;;;;;;;18.30;87.60;;;;;;4987154;28;19938;-76
2023/08/02 07:27:10;;;;;;;;;;;18.30;87.60;;;;;;4981493;28;19929;-76
2023/08/02 07:29:37;;;;;;;;;;;18.30;87.60;;;;;;4982370;28;19937;-77
2023/08/02 07:32:03;;;;;;;;;;;18.30;87.80;;;;;;4980916;28;19936;-77
2023/08/02 07:34:30;;;;;;;;;;;18.30;87.90;;;;;;4979319;28;19956;-75
2023/08/02 07:36:56;;;;;;;;;;;18.30;88.00;;;;;;4978221;28;19968;-75
2023/08/02 07:39:24;;;;;;;;;;;18.30;88.20;;;;;;4977582;28;20196;-77
2023/08/02 07:41:51;;;;;;;;;;;18.30;88.20;;;;;;4982798;28;19930;-76
2023/08/02 07:44:17;;;;;;;;;;;18.30;88.30;;;;;;4977144;28;20092;-76
2023/08/02 07:46:44;;;;;;;;;;;18.30;88.30;;;;;;4976136;28;19941;-76
2023/08/02 07:49:11;;;;;;;;;;;18.30;88.40;;;;;;4978489;28;19930;-76
2023/08/02 07:51:37;;;;;;;;;;;18.30;88.50;;;;;;4976337;28;19926;-78
2023/08/02 07:54:03;;;;;;;;;;;18.20;88.60;;;;;;4978582;28;19930;-76
2023/08/02 07:56:31;;;;;;;;;;;18.30;88.80;;;;;;4977654;28;19940;-76
2023/08/02 07:58:57;;;;;;;;;;;18.30;88.90;;;;;;4979680;28;19929;-75
2023/08/02 08:01:24;;;;;;;;;;;18.30;89.00;;;;;;4978982;28;19926;-76
2023/08/02 08:03:50;;;;;;;;;;;18.30;89.00;;;;;;4979413;28;20411;-77
2023/08/02 08:06:19;;;;;;;;;;;18.30;89.10;;;;;;4976450;28;21242;-77
2023/08/02 08:08:46;;;;;;;;;;;18.30;89.20;;;;;;4981253;28;19940;-76
2023/08/02 08:11:12;;;;;;;;;;;18.30;89.40;;;;;;4979763;28;19937;-77
2023/08/02 08:13:40;;;;;;;;;;;18.30;89.40;;;;;;4978819;28;19945;-78
2023/08/02 08:16:07;;;;;;;;;;;18.30;89.40;;;;;;4976696;28;20424;-77
2023/08/02 08:18:34;;;;;;;;;;;18.30;89.50;;;;;;4978803;28;19930;-76
2023/08/02 08:21:02;;;;;;;;;;;18.30;89.80;;;;;;4976284;28;20445;-77
2023/08/02 08:23:29;;;;;;;;;;;18.30;89.40;;;;;;4976703;28;19938;-76
2023/08/02 08:25:55;;;;;;;;;;;18.30;89.40;;;;;;4983341;28;19940;-75
2023/08/02 08:28:22;;;;;;;;;;;18.40;89.60;;;;;;4977472;28;19929;-77
2023/08/02 08:30:58;;;;;;;;;;;18.40;89.60;;;;;;4980465;28;19930;-76
2023/08/02 08:33:24;;;;;;;;;;;18.40;89.70;;;;;;4980679;28;19940;-76
2023/08/02 08:35:51;;;;;;;;;;;18.40;89.90;;;;;;4982042;28;19936;-76
2023/08/02 08:38:17;;;;;;;;;;;18.40;90.00;;;;;;4982082;28;19929;-76
2023/08/02 08:40:49;;;;;;;;;;;18.40;90.10;;;;;;4968052;28;19945;-76
2023/08/02 08:43:16;;;;;;;;;;;18.40;90.10;;;;;;4973037;28;19934;-76
2023/08/02 08:45:43;;;;;;;;;;;18.40;90.10;;;;;;4978091;28;19941;-76
2023/08/02 08:48:12;;;;;;;;;;;18.30;90.00;;;;;;4975112;28;19937;-76
2023/08/02 08:50:41;;;;;;;;;;;18.40;90.10;;;;;;4977337;28;19937;-76
2023/08/02 08:53:10;;;;;;;;;;;18.40;90.10;;;;;;4977177;28;20017;-76
2023/08/02 08:55:37;;;;;;;;;;;18.40;90.10;;;;;;4980346;28;19977;-77
2023/08/02 08:58:04;;;;;;;;;;;18.40;90.20;;;;;;4984081;28;19930;-79
2023/08/02 09:00:33;;;;;;;;;;;18.40;90.30;;;;;;4982180;28;19930;-74
2023/08/02 09:03:00;;;;;;;;;;;18.40;90.40;;;;;;4976579;28;19930;-81
2023/08/02 09:05:28;;;;;;;;;;;18.40;90.60;;;;;;4979653;28;19952;-75
2023/08/02 09:07:57;;;;;;;;;;;18.40;90.80;;;;;;4983882;28;19937;-78
2023/08/02 09:10:24;;;;;;;;;;;18.40;90.90;;;;;;4976663;28;20036;-73
2023/08/02 09:12:50;;;;;;;;;;;18.40;91.00;;;;;;4976578;28;19926;-74
2023/08/02 09:15:17;;;;;;;;;;;18.40;91.10;;;;;;4977622;28;19937;-74
2023/08/02 09:17:46;;;;;;;;;;;18.40;91.20;;;;;;4984186;28;19934;-75
2023/08/02 09:20:13;;;;;;;;;;;18.40;91.10;;;;;;4979551;28;20050;-78
2023/08/02 09:22:40;;;;;;;;;;;18.40;91.10;;;;;;4977114;28;19945;-76
2023/08/02 09:25:10;;;;;;;;;;;18.50;91.10;;;;;;4983284;28;19969;-74
2023/08/02 09:27:36;;;;;;;;;;;18.50;91.20;;;;;;4984110;28;19951;-74
2023/08/02 09:30:03;;;;;;;;;;;18.50;91.30;;;;;;4977171;28;20311;-77
2023/08/02 09:32:30;;;;;;;;;;;18.50;91.50;;;;;;4979653;28;19940;-75
2023/08/02 09:34:58;;;;;;;;;;;18.50;91.60;;;;;;4979958;28;20279;-78
2023/08/02 09:37:32;;;;;;;;;;;18.50;91.80;;;;;;4977380;28;19965;-76
2023/08/02 09:39:59;;;;;;;;;;;18.60;91.90;;;;;;4978620;28;20427;-75
2023/08/02 09:42:27;;;;;;;;;;;18.50;92.00;;;;;;4977131;28;20631;-76
2023/08/02 09:44:54;;;;;;;;;;;18.50;92.00;;;;;;4981287;28;19934;-77
2023/08/02 09:47:21;;;;;;;;;;;18.50;92.10;;;;;;4984543;28;19937;-75
2023/08/02 09:50:02;;;;;;;;;;;18.60;92.30;;;;;;4984607;28;20032;-74
2023/08/02 09:52:28;;;;;;;;;;;18.60;92.60;;;;;;4983432;28;20413;-75
2023/08/02 09:54:55;;;;;;;;;;;18.60;92.80;;;;;;4983933;28;19953;-75
2023/08/02 09:57:24;;;;;;;;;;;18.60;93.30;;;;;;4985708;28;19930;-77
2023/08/02 09:59:52;;;;;;;;;;;18.60;93.00;;;;;;4980047;28;19930;-75
2023/08/02 10:02:20;;;;;;;;;;;18.50;93.10;;;;;;4982998;28;19933;-76
2023/08/02 10:04:47;;;;;;;;;;;18.60;93.30;;;;;;4978115;28;19937;-77
2023/08/02 10:07:15;;;;;;;;;;;18.60;93.40;;;;;;4985467;28;19980;-76
2023/08/02 10:09:42;;;;;;;;;;;18.60;93.50;;;;;;4982375;28;19929;-76
2023/08/02 10:12:10;;;;;;;;;;;18.60;93.70;;;;;;4978693;28;20467;-76
2023/08/02 10:14:37;;;;;;;;;;;18.60;94.00;;;;;;4980616;28;20316;-76
2023/08/02 10:17:04;;;;;;;;;;;18.60;94.10;;;;;;4982530;28;19930;-75
2023/08/02 10:19:32;;;;;;;;;;;18.60;94.20;;;;;;4981632;28;19957;-76
2023/08/02 10:21:58;;;;;;;;;;;18.60;94.40;;;;;;4980250;28;20049;-75
2023/08/02 10:24:26;;;;;;;;;;;18.60;94.50;;;;;;4985017;28;19930;-75
2023/08/02 10:26:53;;;;;;;;;;;18.60;94.70;;;;;;4984554;28;20357;-77
2023/08/02 10:29:20;;;;;;;;;;;18.60;94.90;;;;;;4983070;28;19952;-80
2023/08/02 10:31:48;;;;;;;;;;;18.60;95.00;;;;;;4976244;28;19929;-78
2023/08/02 10:34:33;;;;;;;;;;;18.60;95.20;;;;;;4981424;28;19934;-76
2023/08/02 10:36:59;;;;;;;;;;;18.60;95.20;;;;;;4982938;28;19945;-77
2023/08/02 10:39:41;;;;;;;;;;;18.60;95.30;;;;;;4980807;28;19941;-77
2023/08/02 10:42:07;;;;;;;;;;;18.60;95.30;;;;;;4979652;28;19937;-76
2023/08/02 10:44:34;;;;;;;;;;;18.60;95.90;;;;;;4980441;28;20395;-76
2023/08/02 10:47:16;;;;;;;;;;;18.60;95.60;;;;;;4981112;28;19944;-75
2023/08/02 10:49:44;;;;;;;;;;;18.60;95.80;;;;;;4976134;28;19977;-79
2023/08/02 10:52:26;;;;;;;;;;;18.60;95.90;;;;;;4980003;28;19936;-75
2023/08/02 10:55:06;;;;;;;;;;;18.60;95.90;;;;;;4979145;28;21089;-76
2023/08/02 10:57:33;;;;;;;;;;;18.60;95.90;;;;;;4978979;28;20104;-77
2023/08/02 11:00:00;;;;;;;;;;;18.60;96.10;;;;;;4979468;28;20311;-80
2023/08/02 11:02:26;;;;;;;;;;;18.60;96.30;;;;;;4977815;28;19957;-77
2023/08/02 11:04:54;;;;;;;;;;;18.60;96.40;;;;;;4976945;28;19934;-78
2023/08/02 11:07:21;;;;;;;;;;;18.60;96.60;;;;;;4980226;28;20423;-77
2023/08/02 11:09:49;;;;;;;;;;;18.60;96.50;;;;;;4979364;28;20016;-76
2023/08/02 11:12:16;;;;;;;;;;;18.60;96.50;;;;;;4976894;28;19934;-78
2023/08/02 11:14:43;;;;;;;;;;;18.70;96.40;;;;;;4979294;28;19929;-76
2023/08/02 11:17:10;;;;;;;;;;;18.70;96.50;;;;;;4979542;28;19957;-76
2023/08/02 11:19:37;;;;;;;;;;;18.70;96.60;;;;;;4978429;28;19934;-76
2023/08/02 11:22:06;;;;;;;;;;;18.70;96.70;;;;;;4982437;28;19929;-76
2023/08/02 11:24:41;;;;;;;;;;;18.70;96.80;;;;;;4981015;28;19934;-74
2023/08/02 11:27:08;;;;;;;;;;;18.60;96.80;;;;;;4978390;28;19929;-76
2023/08/02 11:29:35;;;;;;;;;;;18.70;96.90;;;;;;4979414;28;19929;-78
2023/08/02 11:32:02;;;;;;;;;;;18.70;96.90;;;;;;4967038;28;20340;-77
2023/08/02 11:34:29;;;;;;;;;;;18.70;96.70;;;;;;4974830;28;20667;-78
2023/08/02 11:36:56;;;;;;;;;;;18.70;96.70;;;;;;4976098;28;20300;-78
2023/08/02 11:39:24;;;;;;;;;;;18.70;96.70;;;;;;4972392;28;20485;-75
2023/08/02 11:42:01;;;;;;;;;;;18.70;96.70;;;;;;4973321;28;19940;-74
2023/08/02 11:44:27;;;;;;;;;;;18.70;96.80;;;;;;4971795;28;19934;-77
2023/08/02 11:46:55;;;;;;;;;;;18.80;97.00;;;;;;4982808;28;20462;-76
2023/08/02 11:49:21;;;;;;;;;;;18.80;97.30;;;;;;4979651;28;20241;-78
2023/08/02 11:51:48;;;;;;;;;;;18.80;97.40;;;;;;4977588;28;19930;-74
2023/08/02 11:54:15;;;;;;;;;;;18.80;97.70;;;;;;4976316;28;19930;-73
2023/08/02 11:56:44;;;;;;;;;;;18.80;97.80;;;;;;4974895;28;19941;-74
2023/08/02 11:59:11;;;;;;;;;;;18.80;97.90;;;;;;4971643;28;19984;-73
2023/08/02 12:01:41;;;;;;;;;;;18.80;98.10;;;;;;4977795;28;21583;-77
2023/08/02 12:04:08;;;;;;;;;;;18.80;98.20;;;;;;4981437;28;19981;-76
2023/08/02 12:06:45;;;;;;;;;;;18.80;98.20;;;;;;4982216;28;19929;-74
2023/08/02 12:09:12;;;;;;;;;;;18.90;98.20;;;;;;4981395;28;20000;-76
2023/08/02 12:11:38;;;;;;;;;;;18.80;98.30;;;;;;4980743;28;20023;-76
2023/08/02 12:14:07;;;;;;;;;;;18.90;98.30;;;;;;4981459;28;20025;-74
2023/08/02 12:16:40;;;;;;;;;;;18.90;98.40;;;;;;4978931;28;20503;-76
2023/08/02 12:19:07;;;;;;;;;;;18.90;98.40;;;;;;4979835;28;20012;-75
2023/08/02 12:21:33;;;;;;;;;;;18.90;98.30;;;;;;4980621;28;20394;-75
2023/08/02 12:24:00;;;;;;;;;;;18.90;98.50;;;;;;4979543;28;19952;-75
2023/08/02 12:26:28;;;;;;;;;;;18.90;98.60;;;;;;4975047;28;20157;-78
2023/08/02 12:28:54;;;;;;;;;;;18.90;98.80;;;;;;4979844;28;19977;-76
2023/08/02 12:31:22;;;;;;;;;;;19.00;98.80;;;;;;4978390;28;19929;-81
2023/08/02 12:33:49;;;;;;;;;;;19.00;98.80;;;;;;4983418;28;19940;-78
2023/08/02 12:36:24;;;;;;;;;;;19.00;98.70;;;;;;4978732;28;20020;-80
2023/08/02 12:38:50;;;;;;;;;;;19.00;98.60;;;;;;4978098;28;20359;-75
2023/08/02 12:41:17;;;;;;;;;;;19.10;98.60;;;;;;4979727;28;20039;-77
2023/08/02 12:43:44;;;;;;;;;;;19.10;98.70;;;;;;4982034;28;19937;-80
2023/08/02 12:46:11;;;;;;;;;;;19.10;98.70;;;;;;4979960;28;19933;-74
2023/08/02 12:48:39;;;;;;;;;;;19.10;98.80;;;;;;4975699;28;20161;-76
2023/08/02 12:51:05;;;;;;;;;;;19.20;98.80;;;;;;4976443;28;20075;-75
2023/08/02 12:53:32;;;;;;;;;;;19.20;99.00;;;;;;4977323;28;19961;-81
2023/08/02 12:55:59;;;;;;;;;;;19.20;99.10;;;;;;4972761;28;20009;-77
2023/08/02 12:58:25;;;;;;;;;;;19.20;99.00;;;;;;4979800;28;20396;-79
2023/08/02 13:00:53;;;;;;;;;;;19.20;99.00;;;;;;4980948;28;19930;-78
2023/08/02 13:03:19;;;;;;;;;;;19.20;99.10;;;;;;4983123;28;20028;-79
2023/08/02 13:05:47;;;;;;;;;;;19.20;99.10;;;;;;4970895;28;20025;-75
2023/08/02 13:08:14;;;;;;;;;;;19.30;99.10;;;;;;4975907;28;20281;-75
2023/08/02 13:10:41;;;;;;;;;;;19.30;99.10;;;;;;4974562;28;19941;-76
2023/08/02 13:13:07;;;;;;;;;;;19.30;99.20;;;;;;4973739;28;20724;-77
2023/08/02 13:15:34;;;;;;;;;;;19.40;99.40;;;;;;4975647;28;20008;-77
2023/08/02 13:18:01;;;;;;;;;;;19.40;99.50;;;;;;4976242;28;19941;-78
2023/08/02 13:20:28;;;;;;;;;;;19.50;99.60;;;;;;4976030;28;19933;-76
2023/08/02 13:22:56;;;;;;;;;;;19.50;99.70;;;;;;4982422;28;19934;-80
2023/08/02 13:25:22;;;;;;;;;;;19.50;99.60;;;;;;4981964;28;20469;-76
2023/08/02 13:27:49;;;;;;;;;;;19.50;99.50;;;;;;4978966;28;19930;-77
2023/08/02 13:30:16;;;;;;;;;;;19.60;99.60;;;;;;4980930;28;19936;-76
2023/08/02 13:32:42;;;;;;;;;;;19.60;99.50;;;;;;4982018;28;19937;-78
2023/08/02 13:35:09;;;;;;;;;;;19.60;99.70;;;;;;4979661;28;19930;-77
2023/08/02 13:37:37;;;;;;;;;;;19.70;99.70;;;;;;4981083;28;19929;-76
2023/08/02 13:40:06;;;;;;;;;;;19.70;99.60;;;;;;4982531;28;19976;-75
2023/08/02 13:42:33;;;;;;;;;;;19.70;99.40;;;;;;4986202;28;19929;-77
2023/08/02 13:44:59;;;;;;;;;;;19.80;99.40;;;;;;4985023;28;19930;-76
2023/08/02 13:47:27;;;;;;;;;;;19.80;99.40;;;;;;4985714;28;20019;-76
2023/08/02 13:49:55;;;;;;;;;;;19.80;99.30;;;;;;4983963;28;21983;-77
2023/08/02 13:52:21;;;;;;;;;;;19.80;99.20;;;;;;4982040;28;20242;-75
2023/08/02 13:54:48;;;;;;;;;;;19.90;99.20;;;;;;4982714;28;19934;-76
2023/08/02 13:57:16;;;;;;;;;;;19.90;99.40;;;;;;4987413;28;19929;-76
2023/08/02 13:59:42;;;;;;;;;;;20.00;99.70;;;;;;4985503;28;19930;-75
2023/08/02 14:02:09;;;;;;;;;;;20.00;99.70;;;;;;4981019;28;19949;-77
2023/08/02 14:04:36;;;;;;;;;;;20.10;99.50;;;;;;4984987;28;19937;-79
2023/08/02 14:07:04;;;;;;;;;;;20.10;99.30;;;;;;4983608;28;19930;-76
2023/08/02 14:09:31;;;;;;;;;;;20.10;99.10;;;;;;4986722;28;19929;-76
2023/08/02 14:11:57;;;;;;;;;;;20.10;99.20;;;;;;4982659;28;19930;-75
2023/08/02 14:14:25;;;;;;;;;;;20.20;99.20;;;;;;4978320;28;19930;-76
2023/08/02 14:16:52;;;;;;;;;;;20.30;99.00;;;;;;4979025;28;19942;-77